Time;durP1;ratioP1;P1;durP2;ratioP2;P2;SDS_P1;SDS_P2;PMS_P1;PMS_P2;Temp;Humidity;BMP_temperature;BMP_pressure;BME280_temperature;BME280_humidity;BME280_pressure;Samples;Min_cycle;Max_cycle;Signal;HPM_P1;HPM_P2
2023/07/25 00:02:23;;;;;;;3.90;1.25;;;20.30;99.90;;;;;;5037606;28;20094;-81
2023/07/25 00:04:49;;;;;;;4.45;1.25;;;20.30;99.90;;;;;;5037708;28;20112;-81
2023/07/25 00:07:15;;;;;;;4.60;1.10;;;20.20;99.90;;;;;;5038624;28;20028;-81
2023/07/25 00:09:40;;;;;;;2.15;1.10;;;20.20;99.90;;;;;;5037440;28;20032;-80
2023/07/25 00:12:06;;;;;;;3.50;1.20;;;20.20;99.90;;;;;;5056155;28;20107;-81
2023/07/25 00:14:33;;;;;;;5.40;1.40;;;20.10;99.90;;;;;;5038709;28;20025;-82
2023/07/25 00:16:59;;;;;;;4.28;1.23;;;20.10;99.90;;;;;;5055165;28;20029;-81
2023/07/25 00:19:25;;;;;;;4.20;1.60;;;20.20;99.90;;;;;;5055864;28;20036;-81
2023/07/25 00:21:51;;;;;;;2.08;1.30;;;20.20;99.90;;;;;;5037787;28;20033;-81
2023/07/25 00:24:17;;;;;;;2.88;1.30;;;20.20;99.90;;;;;;5055821;28;20037;-81
2023/07/25 00:26:43;;;;;;;2.10;1.27;;;20.20;99.90;;;;;;5037308;28;20094;-81
2023/07/25 00:29:08;;;;;;;2.10;1.08;;;20.00;99.90;;;;;;5038178;28;20060;-81
2023/07/25 00:31:34;;;;;;;1.65;1.35;;;20.00;99.90;;;;;;5055517;28;20032;-82
2023/07/25 00:34:00;;;;;;;2.90;1.50;;;20.00;99.90;;;;;;5037311;28;20032;-81
2023/07/25 00:36:25;;;;;;;2.25;1.40;;;19.90;99.90;;;;;;5037814;28;20021;-81
2023/07/25 00:38:51;;;;;;;4.80;2.00;;;19.90;99.90;;;;;;5037144;28;20056;-81
2023/07/25 00:41:17;;;;;;;5.80;1.35;;;19.90;99.90;;;;;;5038148;28;20378;-81
2023/07/25 00:43:42;;;;;;;2.33;1.10;;;20.00;99.90;;;;;;5037337;28;20469;-80
2023/07/25 00:46:08;;;;;;;3.00;1.25;;;20.00;99.90;;;;;;5037781;28;20032;-81
2023/07/25 00:48:34;;;;;;;1.55;1.23;;;20.00;99.90;;;;;;5037749;28;20025;-80
2023/07/25 00:50:59;;;;;;;2.25;1.25;;;20.00;99.90;;;;;;5054225;28;20057;-81
2023/07/25 00:53:26;;;;;;;2.95;1.45;;;20.10;99.90;;;;;;5037362;28;20030;-81
2023/07/25 00:55:52;;;;;;;3.35;1.50;;;20.00;99.90;;;;;;5036766;28;20029;-81
2023/07/25 00:58:18;;;;;;;3.92;1.45;;;20.00;99.90;;;;;;5038111;28;20029;-80
2023/07/25 01:00:44;;;;;;;2.75;1.30;;;20.10;99.90;;;;;;5037042;28;20029;-80
2023/07/25 01:03:11;;;;;;;2.95;1.70;;;20.00;99.90;;;;;;5037177;28;20045;-80
2023/07/25 01:05:42;;;;;;;3.35;1.45;;;20.00;99.90;;;;;;5036883;28;20071;-81
2023/07/25 01:08:08;;;;;;;4.97;1.30;;;20.00;99.90;;;;;;5055146;28;20021;-80
2023/07/25 01:10:34;;;;;;;3.22;1.35;;;20.00;99.90;;;;;;5037065;28;20254;-81
2023/07/25 01:13:00;;;;;;;1.83;1.00;;;20.00;99.90;;;;;;5054095;28;20377;-81
2023/07/25 01:15:28;;;;;;;3.78;1.17;;;20.00;99.90;;;;;;5054647;28;20021;-81
2023/07/25 01:17:54;;;;;;;2.42;1.48;;;19.90;99.90;;;;;;5054371;28;20021;-81
2023/07/25 01:20:20;;;;;;;5.43;1.40;;;19.90;99.90;;;;;;5054805;28;20466;-81
2023/07/25 01:22:47;;;;;;;4.63;2.55;;;20.00;99.90;;;;;;5037057;28;20037;-80
2023/07/25 01:25:14;;;;;;;12.10;8.20;;;20.00;99.90;;;;;;5054612;28;20029;-81
2023/07/25 01:27:39;;;;;;;8.25;5.47;;;20.00;99.90;;;;;;5054394;28;20096;-81
2023/07/25 01:30:06;;;;;;;6.05;2.88;;;19.90;99.90;;;;;;5053424;28;20525;-81
2023/07/25 01:32:32;;;;;;;6.50;1.90;;;20.00;99.90;;;;;;5036355;28;20037;-81
2023/07/25 01:34:58;;;;;;;7.47;1.60;;;20.00;99.90;;;;;;5035902;28;20040;-80
2023/07/25 01:37:23;;;;;;;9.95;7.25;;;19.90;99.90;;;;;;5037030;28;20085;-80
2023/07/25 01:39:49;;;;;;;5.55;2.80;;;19.90;99.90;;;;;;5053698;28;20021;-80
2023/07/25 01:42:14;;;;;;;4.78;1.80;;;19.90;99.90;;;;;;5036620;28;20021;-80
2023/07/25 01:44:40;;;;;;;2.88;1.88;;;19.90;99.90;;;;;;5036584;28;20167;-80
2023/07/25 01:47:06;;;;;;;4.60;2.20;;;19.80;99.90;;;;;;5053631;28;20032;-80
2023/07/25 01:49:31;;;;;;;3.97;1.75;;;19.80;99.90;;;;;;5036539;28;20029;-79
2023/07/25 01:51:57;;;;;;;4.88;1.75;;;19.70;99.90;;;;;;5053722;28;20024;-79
2023/07/25 01:54:23;;;;;;;5.47;1.70;;;19.70;99.90;;;;;;5054187;28;20021;-80
2023/07/25 01:56:48;;;;;;;2.97;1.90;;;19.80;99.90;;;;;;5035920;28;20070;-80
2023/07/25 01:59:14;;;;;;;3.67;1.50;;;19.70;99.90;;;;;;5036520;28;20036;-81
2023/07/25 02:01:39;;;;;;;3.72;1.67;;;19.60;99.90;;;;;;5054050;28;20017;-81
2023/07/25 02:04:05;;;;;;;4.18;1.55;;;19.50;99.90;;;;;;5053691;28;20120;-81
2023/07/25 02:06:31;;;;;;;3.08;1.50;;;19.50;99.90;;;;;;5054098;28;20497;-81
2023/07/25 02:08:56;;;;;;;2.50;1.65;;;19.40;99.90;;;;;;5053244;28;20473;-81
2023/07/25 02:11:22;;;;;;;3.85;1.95;;;19.40;99.90;;;;;;5036167;28;20032;-81
2023/07/25 02:13:47;;;;;;;3.80;1.98;;;19.40;99.90;;;;;;5040047;28;20025;-79
2023/07/25 02:16:13;;;;;;;2.55;1.88;;;19.50;99.90;;;;;;5053436;28;20029;-81
2023/07/25 02:18:39;;;;;;;2.92;1.58;;;19.50;99.90;;;;;;5053803;28;20469;-81
2023/07/25 02:21:04;;;;;;;3.53;1.50;;;19.50;99.90;;;;;;5052670;28;20489;-81
2023/07/25 02:23:30;;;;;;;1.70;1.40;;;19.50;99.90;;;;;;5053108;28;20033;-81
2023/07/25 02:25:55;;;;;;;2.55;1.42;;;19.40;99.90;;;;;;5054520;28;20458;-81
2023/07/25 02:28:21;;;;;;;3.38;1.50;;;19.40;99.90;;;;;;5056769;28;20032;-81
2023/07/25 02:30:47;;;;;;;2.28;1.38;;;19.40;99.90;;;;;;5057670;28;20029;-78
2023/07/25 02:33:13;;;;;;;2.83;1.55;;;19.40;99.90;;;;;;5056419;28;20435;-81
2023/07/25 02:35:39;;;;;;;4.82;1.55;;;19.40;99.90;;;;;;5057763;28;20081;-81
2023/07/25 02:38:04;;;;;;;2.75;1.10;;;19.40;99.90;;;;;;5056023;28;20060;-81
2023/07/25 02:40:30;;;;;;;2.28;1.40;;;19.40;99.90;;;;;;5057919;28;20086;-81
2023/07/25 02:42:55;;;;;;;3.65;1.55;;;19.40;99.90;;;;;;5057314;28;20036;-81
2023/07/25 02:45:21;;;;;;;3.35;1.50;;;19.40;99.90;;;;;;5056839;28;20082;-81
2023/07/25 02:47:47;;;;;;;2.53;1.65;;;19.30;99.90;;;;;;5056159;28;20021;-80
2023/07/25 02:50:12;;;;;;;2.83;1.63;;;19.30;99.90;;;;;;5056305;28;20116;-81
2023/07/25 02:52:38;;;;;;;3.28;1.33;;;19.30;99.90;;;;;;5056151;28;20033;-82
2023/07/25 02:55:05;;;;;;;3.30;1.50;;;19.30;99.90;;;;;;5055915;28;20025;-81
2023/07/25 02:57:30;;;;;;;3.97;1.60;;;19.30;99.90;;;;;;5055959;28;20051;-81
2023/07/25 02:59:56;;;;;;;4.13;1.90;;;19.30;99.90;;;;;;5056796;28;20032;-80
2023/07/25 03:02:21;;;;;;;3.08;1.48;;;19.30;99.90;;;;;;5057224;28;20452;-81
2023/07/25 03:04:47;;;;;;;2.20;1.15;;;19.30;99.90;;;;;;5060176;28;20098;-80
2023/07/25 03:07:13;;;;;;;2.80;1.38;;;19.20;99.90;;;;;;5059324;28;20027;-81
2023/07/25 03:09:40;;;;;;;2.20;1.25;;;19.20;99.90;;;;;;5059199;28;20024;-81
2023/07/25 03:12:06;;;;;;;2.92;1.60;;;19.30;99.90;;;;;;5076383;28;20461;-81
2023/07/25 03:14:31;;;;;;;3.50;1.55;;;19.20;99.90;;;;;;5059040;28;20025;-80
2023/07/25 03:16:57;;;;;;;2.25;1.40;;;19.20;99.90;;;;;;5058836;28;20028;-80
2023/07/25 03:19:23;;;;;;;3.33;1.52;;;19.20;99.90;;;;;;5077187;28;20457;-80
2023/07/25 03:21:48;;;;;;;3.30;1.77;;;19.20;99.90;;;;;;5076730;28;20025;-81
2023/07/25 03:24:14;;;;;;;3.10;1.70;;;19.10;99.90;;;;;;5059392;28;20029;-81
2023/07/25 03:26:39;;;;;;;2.70;1.52;;;19.10;99.90;;;;;;5059289;28;20458;-81
2023/07/25 03:29:05;;;;;;;2.40;1.73;;;19.10;99.90;;;;;;5058715;28;20052;-81
2023/07/25 03:31:31;;;;;;;3.67;1.83;;;19.10;99.90;;;;;;5059405;28;20031;-81
2023/07/25 03:33:56;;;;;;;8.77;2.30;;;19.00;99.90;;;;;;5076651;28;20039;-81
2023/07/25 03:36:24;;;;;;;4.63;1.90;;;19.00;99.90;;;;;;5058146;28;20027;-81
2023/07/25 03:38:49;;;;;;;2.80;1.70;;;19.00;99.90;;;;;;5058630;28;20031;-80
2023/07/25 03:41:15;;;;;;;4.22;2.20;;;18.90;99.90;;;;;;5058657;28;20107;-82
2023/07/25 03:43:40;;;;;;;3.40;1.70;;;18.90;99.90;;;;;;5059038;28;20033;-82
2023/07/25 03:46:06;;;;;;;2.50;1.92;;;18.80;99.90;;;;;;5058616;28;20365;-82
2023/07/25 03:48:32;;;;;;;5.05;1.75;;;18.80;99.90;;;;;;5058964;28;20094;-81
2023/07/25 03:50:58;;;;;;;3.97;1.88;;;18.80;99.90;;;;;;5058313;28;20029;-81
2023/07/25 03:53:23;;;;;;;4.32;1.67;;;18.80;99.90;;;;;;5076404;28;20527;-82
2023/07/25 03:55:49;;;;;;;4.63;1.92;;;18.80;99.90;;;;;;5058592;28;20024;-82
2023/07/25 03:58:14;;;;;;;3.53;1.73;;;18.80;99.90;;;;;;5058323;28;20480;-81
2023/07/25 04:00:41;;;;;;;2.58;1.35;;;18.80;99.90;;;;;;5076316;28;20020;-81
2023/07/25 04:03:06;;;;;;;2.65;1.58;;;18.80;99.90;;;;;;5058202;28;20051;-81
2023/07/25 04:05:32;;;;;;;3.30;1.63;;;18.80;99.90;;;;;;5058031;28;20041;-82
2023/07/25 04:07:58;;;;;;;4.13;1.80;;;18.80;99.90;;;;;;5075525;28;20021;-81
2023/07/25 04:10:23;;;;;;;2.65;1.30;;;18.80;99.90;;;;;;5058252;28;20417;-81
2023/07/25 04:12:49;;;;;;;5.15;1.73;;;18.70;99.90;;;;;;5058084;28;20115;-82
2023/07/25 04:15:14;;;;;;;4.95;1.52;;;18.80;99.90;;;;;;5057796;28;20020;-82
2023/07/25 04:17:40;;;;;;;3.85;1.50;;;18.70;99.90;;;;;;5076089;28;20074;-81
2023/07/25 04:20:06;;;;;;;5.53;1.58;;;18.70;99.90;;;;;;5075251;28;20028;-81
2023/07/25 04:22:32;;;;;;;3.28;2.13;;;18.70;99.90;;;;;;5075699;28;20044;-81
2023/07/25 04:24:57;;;;;;;6.13;1.70;;;18.60;99.90;;;;;;5057537;28;20024;-80
2023/07/25 04:27:23;;;;;;;3.45;1.42;;;18.60;99.90;;;;;;5075825;28;20028;-80
2023/07/25 04:29:49;;;;;;;2.38;1.40;;;18.60;99.90;;;;;;5075519;28;20032;-81
2023/07/25 04:32:14;;;;;;;3.30;1.60;;;18.60;99.90;;;;;;5074950;28;20067;-81
2023/07/25 04:34:40;;;;;;;4.03;1.70;;;18.60;99.90;;;;;;5057407;28;20033;-80
2023/07/25 04:37:06;;;;;;;3.30;1.42;;;18.50;99.90;;;;;;5057189;28;20025;-81
2023/07/25 04:39:31;;;;;;;2.53;1.48;;;18.50;99.90;;;;;;5075578;28;20033;-82
2023/07/25 04:41:57;;;;;;;2.60;1.45;;;18.50;99.90;;;;;;5057114;28;20027;-79
2023/07/25 04:44:22;;;;;;;3.53;1.40;;;18.50;99.90;;;;;;5057686;28;20036;-81
2023/07/25 04:46:48;;;;;;;2.13;1.42;;;18.50;99.90;;;;;;5075330;28;20032;-82
2023/07/25 04:49:13;;;;;;;2.20;1.38;;;18.40;99.90;;;;;;5056641;28;20237;-82
2023/07/25 04:51:39;;;;;;;2.88;1.30;;;18.40;99.90;;;;;;5057774;28;20030;-82
2023/07/25 04:54:05;;;;;;;1.85;1.42;;;18.40;99.90;;;;;;5057138;28;20484;-82
2023/07/25 04:56:31;;;;;;;5.72;1.75;;;18.40;99.90;;;;;;5075637;28;20028;-82
2023/07/25 04:58:57;;;;;;;2.25;1.42;;;18.40;99.90;;;;;;5057142;28;20024;-80
2023/07/25 05:01:22;;;;;;;5.18;1.73;;;18.40;99.90;;;;;;5075156;28;20059;-81
2023/07/25 05:03:48;;;;;;;4.75;1.52;;;18.40;99.90;;;;;;5074754;28;20132;-82
2023/07/25 05:06:13;;;;;;;2.42;1.50;;;18.40;99.90;;;;;;5056594;28;20044;-82
2023/07/25 05:08:39;;;;;;;3.97;1.50;;;18.40;99.90;;;;;;5057295;28;20088;-82
2023/07/25 05:11:05;;;;;;;2.97;1.52;;;18.40;99.90;;;;;;5074023;28;20032;-82
2023/07/25 05:13:30;;;;;;;2.60;1.67;;;18.40;99.90;;;;;;5049467;28;20482;-82
2023/07/25 05:15:56;;;;;;;4.50;1.55;;;18.50;99.90;;;;;;5036654;28;20028;-80
2023/07/25 05:18:22;;;;;;;2.45;1.50;;;18.40;99.90;;;;;;5036997;28;20028;-82
2023/07/25 05:20:47;;;;;;;3.25;1.45;;;18.40;99.90;;;;;;5055005;28;20369;-81
2023/07/25 05:23:13;;;;;;;2.13;1.35;;;18.50;99.90;;;;;;5036636;28;20033;-81
2023/07/25 05:25:38;;;;;;;4.93;1.85;;;18.40;99.90;;;;;;5037083;28;20021;-81
2023/07/25 05:28:04;;;;;;;1.77;1.25;;;18.40;99.90;;;;;;5036591;28;20051;-82
2023/07/25 05:30:31;;;;;;;2.30;1.20;;;18.40;99.90;;;;;;5054504;28;20104;-83
2023/07/25 05:32:56;;;;;;;2.13;1.45;;;18.50;99.90;;;;;;5054230;28;20029;-78
2023/07/25 05:35:22;;;;;;;4.22;1.50;;;18.50;99.90;;;;;;5036485;28;20027;-81
2023/07/25 05:37:48;;;;;;;3.45;1.60;;;18.50;99.90;;;;;;5036457;28;20029;-82
2023/07/25 05:40:14;;;;;;;1.73;1.27;;;18.40;99.90;;;;;;5036285;28;20032;-81
2023/07/25 05:42:39;;;;;;;2.38;1.30;;;18.40;99.90;;;;;;5036514;28;20535;-81
2023/07/25 05:45:05;;;;;;;3.33;1.30;;;18.50;99.90;;;;;;5036333;28;20029;-80
2023/07/25 05:47:31;;;;;;;2.40;1.23;;;18.50;99.90;;;;;;5037101;28;20029;-82
2023/07/25 05:49:57;;;;;;;2.25;1.38;;;18.50;99.90;;;;;;5054458;28;20462;-82
2023/07/25 05:52:22;;;;;;;6.47;2.33;;;18.50;99.90;;;;;;5036396;28;20085;-82
2023/07/25 05:54:52;;;;;;;3.60;1.15;;;18.50;99.90;;;;;;5036626;28;20481;-82
2023/07/25 05:57:18;;;;;;;1.73;1.20;;;18.50;99.90;;;;;;5036210;28;20234;-82
2023/07/25 05:59:44;;;;;;;1.67;1.13;;;18.50;99.90;;;;;;5053701;28;20032;-82
2023/07/25 06:02:10;;;;;;;3.08;1.15;;;18.60;99.90;;;;;;5035891;28;20374;-81
2023/07/25 06:04:36;;;;;;;2.25;1.17;;;18.60;99.90;;;;;;5036358;28;20029;-81
2023/07/25 06:07:01;;;;;;;2.80;1.30;;;18.60;99.90;;;;;;5036654;28;20466;-80
2023/07/25 06:09:27;;;;;;;2.65;1.23;;;18.60;99.90;;;;;;5036756;28;20021;-82
2023/07/25 06:11:53;;;;;;;5.43;1.58;;;18.70;99.90;;;;;;5053776;28;20060;-82
2023/07/25 06:14:19;;;;;;;3.38;1.92;;;18.60;99.90;;;;;;5035666;28;20742;-82
2023/07/25 06:16:44;;;;;;;2.70;1.65;;;18.60;99.90;;;;;;5053950;28;20489;-82
2023/07/25 06:19:10;;;;;;;2.42;1.77;;;18.70;99.90;;;;;;5035633;28;20021;-82
2023/07/25 06:21:36;;;;;;;3.50;1.92;;;18.70;99.90;;;;;;5036485;28;20029;-81
2023/07/25 06:24:02;;;;;;;5.78;1.50;;;18.80;99.90;;;;;;5053525;28;20401;-79
2023/07/25 06:26:27;;;;;;;3.28;1.70;;;18.80;99.90;;;;;;5036167;28;20031;-81
2023/07/25 06:28:53;;;;;;;2.67;1.60;;;18.80;99.90;;;;;;5036762;28;20021;-81
2023/07/25 06:31:18;;;;;;;2.55;1.58;;;18.70;99.90;;;;;;5035834;28;20090;-80
2023/07/25 06:33:44;;;;;;;3.03;1.45;;;18.70;99.90;;;;;;5053970;28;20061;-80
2023/07/25 06:36:10;;;;;;;5.88;1.75;;;18.70;99.90;;;;;;5035769;28;20373;-81
2023/07/25 06:38:35;;;;;;;2.97;1.50;;;18.80;99.90;;;;;;5036481;28;20036;-81
2023/07/25 06:41:01;;;;;;;4.93;1.70;;;18.70;99.90;;;;;;5053453;28;20029;-80
2023/07/25 06:43:27;;;;;;;5.25;1.60;;;18.70;99.90;;;;;;5035424;28;20466;-81
2023/07/25 06:45:53;;;;;;;4.95;1.48;;;18.70;99.90;;;;;;5036344;28;20163;-81
2023/07/25 06:48:18;;;;;;;4.57;1.48;;;18.70;99.90;;;;;;5053400;28;20032;-81
2023/07/25 06:50:46;;;;;;;4.97;1.40;;;18.70;99.90;;;;;;5035964;28;20074;-81
2023/07/25 06:53:11;;;;;;;2.60;1.55;;;18.70;99.90;;;;;;5035678;28;20076;-81
2023/07/25 06:55:38;;;;;;;2.92;1.20;;;18.70;99.90;;;;;;5053183;28;20021;-79
2023/07/25 06:58:04;;;;;;;5.65;1.13;;;18.60;99.90;;;;;;5052956;28;20151;-81
2023/07/25 07:00:30;;;;;;;5.57;1.23;;;18.70;99.90;;;;;;5036152;28;20049;-83
2023/07/25 07:02:56;;;;;;;1.63;1.10;;;18.70;99.90;;;;;;5053260;28;20037;-82
2023/07/25 07:05:22;;;;;;;2.67;1.30;;;18.80;99.90;;;;;;5035203;28;20053;-81
2023/07/25 07:07:48;;;;;;;3.50;1.10;;;18.90;99.90;;;;;;5036131;28;20029;-81
2023/07/25 07:10:13;;;;;;;3.53;1.33;;;18.90;99.90;;;;;;5035741;28;20029;-82
2023/07/25 07:12:45;;;;;;;4.93;1.63;;;18.90;99.90;;;;;;5038752;28;20071;-80
2023/07/25 07:15:12;;;;;;;3.65;1.20;;;18.90;99.90;;;;;;5056685;28;20036;-80
2023/07/25 07:17:37;;;;;;;4.38;1.40;;;18.90;99.90;;;;;;5039275;28;20021;-81
2023/07/25 07:20:04;;;;;;;2.35;1.20;;;18.90;99.90;;;;;;5039078;28;20090;-79
2023/07/25 07:22:30;;;;;;;3.75;1.30;;;18.90;99.90;;;;;;5039102;28;20474;-81
2023/07/25 07:24:56;;;;;;;5.07;1.67;;;18.90;99.90;;;;;;5039027;28;20041;-81
2023/07/25 07:27:22;;;;;;;3.13;1.50;;;19.00;99.90;;;;;;5038604;28;20040;-81
2023/07/25 07:29:48;;;;;;;2.22;1.25;;;19.00;99.90;;;;;;5056880;28;20044;-81
2023/07/25 07:32:14;;;;;;;2.22;1.02;;;19.00;99.90;;;;;;5038258;28;20473;-81
2023/07/25 07:34:40;;;;;;;2.55;1.08;;;19.00;99.90;;;;;;5038907;28;20025;-81
2023/07/25 07:37:05;;;;;;;2.70;0.85;;;19.20;99.90;;;;;;5037872;28;20470;-81
2023/07/25 07:39:31;;;;;;;2.47;1.25;;;19.20;99.90;;;;;;5039151;28;20036;-81
2023/07/25 07:41:56;;;;;;;3.25;1.00;;;19.20;99.90;;;;;;5056398;28;20382;-82
2023/07/25 07:44:22;;;;;;;1.98;1.00;;;19.30;99.90;;;;;;5055606;28;20029;-80
2023/07/25 07:46:48;;;;;;;2.63;1.30;;;19.40;99.90;;;;;;5038468;28;20473;-81
2023/07/25 07:49:13;;;;;;;3.65;1.10;;;19.30;99.90;;;;;;5055887;28;20062;-82
2023/07/25 07:51:39;;;;;;;2.25;1.20;;;19.40;99.90;;;;;;5055947;28;20090;-83
2023/07/25 07:54:04;;;;;;;3.40;1.00;;;19.50;99.90;;;;;;5038735;28;20029;-80
2023/07/25 07:56:30;;;;;;;2.22;1.10;;;19.60;99.90;;;;;;5055718;28;20033;-83
2023/07/25 07:58:55;;;;;;;1.30;0.90;;;19.70;99.90;;;;;;5038633;28;20025;-82
2023/07/25 08:01:21;;;;;;;3.42;0.85;;;19.70;99.90;;;;;;5050821;28;20033;-82
2023/07/25 08:03:47;;;;;;;2.10;0.85;;;19.80;99.90;;;;;;5038059;28;20047;-83
2023/07/25 08:06:14;;;;;;;1.98;1.00;;;19.90;99.90;;;;;;5040363;28;20063;-80
2023/07/25 08:08:40;;;;;;;4.05;1.50;;;20.00;99.90;;;;;;5032300;28;20026;-82
2023/07/25 08:11:06;;;;;;;3.63;1.30;;;20.10;99.90;;;;;;5053635;28;20017;-82
2023/07/25 08:13:31;;;;;;;3.55;1.80;;;20.20;99.90;;;;;;5044735;28;20116;-83
2023/07/25 08:15:57;;;;;;;4.18;1.50;;;20.20;99.90;;;;;;5054295;28;20025;-83
2023/07/25 08:18:22;;;;;;;2.08;1.13;;;20.20;99.90;;;;;;5054387;28;20032;-83
2023/07/25 08:20:56;;;;;;;4.18;1.30;;;20.10;99.90;;;;;;5055145;28;20024;-82
2023/07/25 08:23:22;;;;;;;3.30;0.95;;;20.10;99.90;;;;;;5035347;28;20549;-82
2023/07/25 08:25:49;;;;;;;1.52;1.15;;;20.10;99.90;;;;;;5043036;28;20033;-80
2023/07/25 08:28:15;;;;;;;3.80;1.15;;;20.10;99.90;;;;;;5036148;28;20025;-80
2023/07/25 08:30:41;;;;;;;2.38;0.93;;;20.20;99.90;;;;;;5053987;28;20025;-82
2023/07/25 08:33:07;;;;;;;3.70;1.27;;;20.20;99.90;;;;;;5032513;28;20116;-79
2023/07/25 08:35:33;;;;;;;2.78;1.20;;;20.30;99.90;;;;;;5049267;28;20113;-80
2023/07/25 08:37:58;;;;;;;4.47;1.10;;;20.40;99.90;;;;;;5036138;28;20029;-80
2023/07/25 08:40:24;;;;;;;2.28;1.10;;;20.40;99.90;;;;;;5036372;28;20052;-81
2023/07/25 08:42:50;;;;;;;1.65;1.02;;;20.40;99.90;;;;;;5036879;28;20028;-82
2023/07/25 08:45:18;;;;;;;3.00;1.10;;;20.50;99.90;;;;;;5036764;28;20029;-83
2023/07/25 08:47:45;;;;;;;3.70;1.10;;;20.50;99.90;;;;;;5054377;28;20029;-83
2023/07/25 08:50:16;;;;;;;1.90;1.08;;;20.60;99.90;;;;;;5047535;28;20390;-83
2023/07/25 08:52:52;;;;;;;2.88;1.02;;;20.70;99.90;;;;;;5036380;28;20064;-82
2023/07/25 08:55:18;;;;;;;1.77;0.85;;;20.90;99.90;;;;;;5037165;28;20033;-81
2023/07/25 08:57:44;;;;;;;2.95;1.27;;;21.10;99.90;;;;;;5036647;28;20033;-82
2023/07/25 09:00:13;;;;;;;3.13;0.75;;;21.10;99.90;;;;;;5027617;28;20482;-82
2023/07/25 09:02:38;;;;;;;2.58;1.05;;;21.10;99.90;;;;;;5049112;28;20032;-82
2023/07/25 09:05:05;;;;;;;3.08;1.30;;;21.00;99.90;;;;;;5036769;28;20545;-82
2023/07/25 09:07:31;;;;;;;3.33;1.20;;;20.90;99.90;;;;;;5054134;28;20037;-82
2023/07/25 09:09:57;;;;;;;3.40;1.08;;;20.80;99.90;;;;;;5035801;28;20474;-81
2023/07/25 09:12:23;;;;;;;4.07;1.30;;;20.70;99.90;;;;;;5036168;28;20020;-82
2023/07/25 09:14:49;;;;;;;4.28;1.30;;;20.80;99.90;;;;;;5037057;28;20075;-83
2023/07/25 09:17:14;;;;;;;4.07;1.10;;;20.90;99.90;;;;;;5053675;28;20096;-81
2023/07/25 09:19:41;;;;;;;3.70;1.30;;;21.00;99.90;;;;;;5054107;28;20029;-81
2023/07/25 09:22:31;;;;;;;3.42;1.27;;;21.10;99.90;;;;;;5036363;28;20025;-81
2023/07/25 09:24:58;;;;;;;2.65;1.00;;;21.30;99.90;;;;;;5034372;28;20033;-81
2023/07/25 09:27:25;;;;;;;2.92;1.02;;;21.40;99.90;;;;;;5023110;28;20029;-82
2023/07/25 09:29:52;;;;;;;5.32;1.50;;;21.30;99.90;;;;;;5053407;28;20474;-81
2023/07/25 09:32:27;;;;;;;5.65;1.63;;;21.30;99.90;;;;;;5036276;28;20036;-83
2023/07/25 09:34:58;;;;;;;3.60;1.23;;;21.20;99.90;;;;;;5036133;28;20056;-82
2023/07/25 09:37:24;;;;;;;3.45;1.02;;;21.10;99.90;;;;;;5035321;28;20067;-81
2023/07/25 09:39:50;;;;;;;3.58;1.40;;;21.00;99.90;;;;;;5035985;28;20116;-85
2023/07/25 09:42:16;;;;;;;1.73;0.90;;;20.80;99.90;;;;;;5053851;28;20076;-83
2023/07/25 09:44:47;;;;;;;2.22;1.17;;;20.60;99.90;;;;;;5036500;28;20068;-84
2023/07/25 09:47:13;;;;;;;1.33;0.90;;;20.50;99.90;;;;;;5036117;28;20037;-86
2023/07/25 09:49:46;;;;;;;2.70;1.13;;;20.50;99.90;;;;;;5036337;28;20029;-83
2023/07/25 09:52:11;;;;;;;2.90;1.00;;;20.60;99.90;;;;;;5030640;28;20032;-80
2023/07/25 09:54:37;;;;;;;2.85;1.00;;;20.70;99.90;;;;;;5053450;28;20040;-83
2023/07/25 09:57:02;;;;;;;3.72;0.90;;;20.70;99.90;;;;;;5053034;28;20021;-82
2023/07/25 09:59:29;;;;;;;4.28;1.17;;;20.60;99.90;;;;;;5035519;28;20021;-83
2023/07/25 10:01:55;;;;;;;2.33;1.10;;;20.40;99.90;;;;;;5036175;28;20032;-83
2023/07/25 10:04:24;;;;;;;2.65;1.05;;;20.40;99.90;;;;;;5035445;28;20041;-83
2023/07/25 10:06:50;;;;;;;4.00;0.95;;;20.40;99.90;;;;;;5039533;28;20048;-84
2023/07/25 10:09:17;;;;;;;5.07;1.08;;;20.40;99.90;;;;;;5052636;28;20063;-84
2023/07/25 10:11:44;;;;;;;1.27;0.93;;;20.40;99.90;;;;;;5018632;28;20033;-83
2023/07/25 10:14:09;;;;;;;1.73;0.88;;;20.40;99.90;;;;;;5035206;28;20037;-82
2023/07/25 10:16:37;;;;;;;1.55;1.00;;;20.30;99.90;;;;;;5036112;28;20052;-83
2023/07/25 10:19:05;;;;;;;2.75;0.93;;;20.30;99.90;;;;;;5035523;28;20029;-80
2023/07/25 10:21:54;;;;;;;1.38;0.90;;;20.40;99.90;;;;;;5032167;28;20025;-83
2023/07/25 10:24:21;;;;;;;1.73;0.90;;;20.30;99.90;;;;;;5026720;28;20046;-81
2023/07/25 10:26:53;;;;;;;4.03;1.00;;;20.30;99.90;;;;;;5035607;28;20025;-84
2023/07/25 10:29:42;;;;;;;2.53;0.80;;;20.30;99.90;;;;;;5052964;28;20535;-84
2023/07/25 10:32:11;;;;;;;1.35;0.90;;;20.20;99.90;;;;;;5035824;28;20025;-82
2023/07/25 10:35:02;;;;;;;2.45;0.90;;;20.20;99.90;;;;;;5036057;28;20470;-83
2023/07/25 10:37:30;;;;;;;1.45;0.68;;;20.20;99.90;;;;;;5043608;28;20029;-85
2023/07/25 10:40:48;;;;;;;2.88;0.63;;;20.20;99.90;;;;;;5016170;28;20030;-86
2023/07/25 10:43:14;;;;;;;1.00;0.30;;;20.20;99.90;;;;;;5020552;28;20049;-82
2023/07/25 10:45:47;;;;;;;1.00;0.30;;;20.10;99.90;;;;;;5035976;28;20512;-83
2023/07/25 10:48:49;;;;;;;0.65;0.30;;;20.00;99.90;;;;;;5056617;28;20109;-82
2023/07/25 10:51:17;;;;;;;2.22;0.60;;;19.90;99.90;;;;;;4988101;28;20041;-83
2023/07/25 10:54:09;;;;;;;1.70;0.50;;;19.80;99.90;;;;;;5053200;28;20029;-81
2023/07/25 10:56:40;;;;;;;2.05;0.45;;;19.70;99.90;;;;;;5019796;28;20026;-83
2023/07/25 10:59:10;;;;;;;1.35;0.60;;;19.60;99.90;;;;;;5024990;28;20037;-83
2023/07/25 11:01:47;;;;;;;2.25;0.60;;;19.60;99.90;;;;;;5019451;28;20109;-84
2023/07/25 11:04:22;;;;;;;2.03;0.50;;;19.50;99.90;;;;;;5036109;28;20045;-79
2023/07/25 11:06:49;;;;;;;0.90;0.40;;;19.50;99.90;;;;;;5038582;28;20053;-79
2023/07/25 11:09:15;;;;;;;1.65;0.47;;;19.50;99.90;;;;;;5034765;28;20029;-79
2023/07/25 11:11:45;;;;;;;1.67;0.40;;;19.40;99.90;;;;;;5037980;28;20036;-79
2023/07/25 11:14:17;;;;;;;2.30;0.68;;;19.30;99.90;;;;;;5022709;28;20029;-80
2023/07/25 11:16:43;;;;;;;;;;;19.30;99.90;;;;;;5022010;28;20060;-79
2023/07/25 11:19:10;;;;;;;1.88;0.40;;;19.40;99.90;;;;;;5038257;28;19905;-78
2023/07/25 11:21:40;;;;;;;0.68;0.40;;;19.40;99.90;;;;;;5056381;28;20095;-79
2023/07/25 11:24:07;;;;;;;0.20;0.20;;;19.40;99.90;;;;;;5035498;28;20034;-81
2023/07/25 11:26:34;;;;;;;2.55;0.40;;;19.20;99.90;;;;;;5035308;28;20037;-81
2023/07/25 11:29:10;;;;;;;0.50;0.30;;;19.20;99.90;;;;;;5035380;28;20025;-81
2023/07/25 11:31:41;;;;;;;0.52;0.38;;;19.20;99.90;;;;;;5019004;28;20029;-81
2023/07/25 11:34:12;;;;;;;0.98;0.40;;;19.30;99.90;;;;;;5046367;28;20030;-82
2023/07/25 11:36:41;;;;;;;2.53;0.45;;;19.30;99.90;;;;;;5023661;28;20484;-81
2023/07/25 11:39:08;;;;;;;2.03;0.47;;;19.30;99.90;;;;;;5055846;28;20405;-81
2023/07/25 11:41:35;;;;;;;1.52;0.20;;;19.30;99.90;;;;;;5055470;28;20032;-81
2023/07/25 11:44:14;;;;;;;1.48;0.45;;;19.40;99.90;;;;;;5049337;28;20032;-79
2023/07/25 11:46:42;;;;;;;0.38;0.38;;;19.40;99.90;;;;;;5053524;28;20033;-79
2023/07/25 11:49:10;;;;;;;2.00;0.50;;;19.50;99.90;;;;;;5064690;28;20021;-80
2023/07/25 11:51:37;;;;;;;1.25;0.52;;;19.60;99.90;;;;;;5060077;28;20060;-80
2023/07/25 11:54:04;;;;;;;0.77;0.50;;;19.70;99.90;;;;;;5037876;28;20034;-80
2023/07/25 11:56:31;;;;;;;0.73;0.40;;;19.70;99.90;;;;;;5054815;28;20121;-80
2023/07/25 11:58:58;;;;;;;2.25;0.77;;;19.70;99.90;;;;;;5034825;28;20018;-85
2023/07/25 12:01:28;;;;;;;0.77;0.40;;;19.80;99.90;;;;;;5055057;28;20108;-79
2023/07/25 12:03:54;;;;;;;1.48;0.50;;;19.60;99.90;;;;;;5054209;28;20123;-79
2023/07/25 12:06:30;;;;;;;1.35;0.50;;;19.50;99.90;;;;;;5037458;28;20056;-79
2023/07/25 12:08:57;;;;;;;0.70;0.47;;;19.70;99.90;;;;;;5055243;28;20051;-80
2023/07/25 12:11:23;;;;;;;0.50;0.43;;;19.70;99.90;;;;;;5036955;28;20130;-79
2023/07/25 12:13:54;;;;;;;0.98;0.60;;;19.80;99.90;;;;;;5054850;28;20455;-81
2023/07/25 12:16:36;;;;;;;0.80;0.60;;;19.90;99.90;;;;;;5055521;28;20017;-81
2023/07/25 12:19:04;;;;;;;0.93;0.60;;;20.00;99.90;;;;;;5037536;28;20086;-81
2023/07/25 12:21:32;;;;;;;5.35;2.33;;;20.10;99.90;;;;;;5037602;28;20025;-87
2023/07/25 12:24:00;;;;;;;1.58;1.00;;;20.10;99.90;;;;;;5037788;28;20029;-85
2023/07/25 12:26:27;;;;;;;1.63;0.70;;;20.10;99.90;;;;;;5055226;28;20021;-88
2023/07/25 12:28:53;;;;;;;1.70;0.80;;;20.30;99.90;;;;;;5055499;28;20029;-83
2023/07/25 12:31:20;;;;;;;1.80;0.70;;;20.40;99.90;;;;;;5055026;28;20056;-82
2023/07/25 12:33:48;;;;;;;1.52;0.77;;;20.60;99.90;;;;;;5037320;28;20035;-84
2023/07/25 12:36:15;;;;;;;2.65;1.55;;;20.50;99.90;;;;;;5054631;28;20100;-82
2023/07/25 12:38:41;;;;;;;1.33;1.13;;;20.70;99.90;;;;;;5054885;28;20028;-83
2023/07/25 12:41:07;;;;;;;1.08;0.70;;;20.70;99.90;;;;;;5034327;28;20098;-82
2023/07/25 12:43:33;;;;;;;1.38;1.20;;;20.90;99.90;;;;;;5033297;28;20057;-81
2023/07/25 12:46:00;;;;;;;1.38;0.85;;;20.90;99.90;;;;;;5032212;28;20079;-82
2023/07/25 12:48:26;;;;;;;1.05;0.70;;;20.90;99.90;;;;;;5036746;28;20025;-81